createdAt,value
2023-03-31T00:01:22.759Z,24.30
2023-03-31T00:07:10.176Z,24.20
2023-03-31T00:13:03.673Z,24.20
2023-03-31T00:18:46.422Z,24.10
2023-03-31T00:24:33.962Z,24.10
2023-03-31T00:30:16.462Z,24.00
2023-03-31T00:36:05.022Z,23.90
2023-03-31T00:41:52.521Z,23.90
2023-03-31T00:47:35.389Z,23.90
2023-03-31T00:58:44.753Z,23.80
2023-03-31T01:04:03.671Z,23.80
2023-03-31T01:09:22.639Z,23.70
2023-03-31T01:15:09.824Z,23.60
2023-03-31T01:20:52.250Z,23.60
2023-03-31T01:26:08.667Z,23.50
2023-03-31T01:31:48.394Z,23.40
2023-03-31T01:37:01.669Z,23.50
2023-03-31T01:42:49.329Z,23.40
2023-03-31T01:48:06.105Z,23.40
2023-03-31T01:53:19.840Z,23.30
2023-03-31T01:58:27.224Z,23.30
2023-03-31T02:03:34.916Z,23.30
2023-03-31T02:08:42.490Z,23.20
2023-03-31T02:13:50.036Z,23.20
2023-03-31T02:18:59.482Z,23.10
2023-03-31T02:24:07.200Z,23.10
2023-03-31T02:29:14.700Z,23.10
2023-03-31T02:34:22.422Z,23.10
2023-03-31T02:39:30.012Z,23.00
2023-03-31T02:44:37.759Z,22.90
2023-03-31T02:49:56.638Z,23.00
2023-03-31T02:55:08.952Z,22.90
2023-03-31T03:00:16.567Z,22.90
2023-03-31T03:06:03.849Z,22.80
2023-03-31T03:11:44.428Z,22.80
2023-03-31T03:17:26.952Z,22.70
2023-03-31T03:23:09.645Z,22.70
2023-03-31T03:28:52.029Z,22.70
2023-03-31T03:33:59.551Z,22.70
2023-03-31T03:39:42.394Z,22.60
2023-03-31T03:45:29.655Z,22.60
2023-03-31T03:51:12.976Z,22.50
2023-03-31T03:56:20.601Z,22.50
2023-03-31T04:02:07.890Z,22.50
2023-03-31T04:07:50.169Z,22.50
2023-03-31T04:13:35.644Z,22.40
2023-03-31T04:19:18.128Z,22.40
2023-03-31T04:25:00.523Z,22.40
2023-03-31T04:35:55.915Z,22.30
2023-03-31T04:41:43.110Z,22.30
2023-03-31T04:47:40.699Z,22.30
2023-03-31T04:53:23.157Z,22.30
2023-03-31T05:04:11.724Z,22.20
2023-03-31T05:09:28.704Z,22.20
2023-03-31T05:15:15.930Z,22.10
2023-03-31T05:20:26.614Z,22.10
2023-03-31T05:26:06.859Z,22.10
2023-03-31T05:31:21.257Z,22.10
2023-03-31T05:36:53.259Z,22.10
2023-03-31T05:41:56.041Z,22.10
2023-03-31T05:47:08.123Z,22.10
2023-03-31T05:52:15.615Z,22.00
2023-03-31T05:57:23.094Z,22.00
2023-03-31T06:02:30.512Z,22.00
2023-03-31T06:07:37.800Z,21.90
2023-03-31T06:12:45.430Z,21.90
2023-03-31T06:17:52.921Z,21.90
2023-03-31T06:23:04.983Z,21.90
2023-03-31T06:28:12.410Z,21.90
2023-03-31T06:33:19.571Z,21.90
2023-03-31T06:38:26.850Z,21.90
2023-03-31T06:43:34.135Z,21.80
2023-03-31T06:48:41.437Z,21.80
2023-03-31T06:53:48.580Z,21.80
2023-03-31T06:58:55.979Z,21.80
2023-03-31T07:04:03.169Z,21.70
2023-03-31T07:09:10.597Z,21.70
2023-03-31T07:14:18.361Z,21.70
2023-03-31T07:19:25.503Z,21.70
2023-03-31T07:24:32.766Z,21.70
2023-03-31T07:29:39.979Z,21.60
2023-03-31T07:34:47.143Z,21.60
2023-03-31T07:39:54.338Z,21.60
2023-03-31T07:45:01.543Z,21.60
2023-03-31T07:50:08.697Z,21.70
2023-03-31T07:55:15.894Z,21.70
2023-03-31T08:00:23.087Z,21.80
2023-03-31T08:05:30.352Z,21.90
2023-03-31T08:10:37.541Z,22.00
2023-03-31T08:15:44.851Z,22.10
2023-03-31T08:20:52.010Z,22.10
2023-03-31T08:25:59.217Z,22.20
2023-03-31T08:31:06.407Z,22.20
2023-03-31T08:36:13.700Z,22.30
2023-03-31T08:41:20.850Z,22.30
2023-03-31T08:46:28.242Z,22.40
2023-03-31T08:51:35.418Z,22.40
2023-03-31T08:56:42.754Z,22.50
2023-03-31T09:01:56.236Z,22.50
2023-03-31T09:06:56.983Z,22.60
2023-03-31T09:12:04.162Z,22.70
2023-03-31T09:17:14.517Z,22.70
2023-03-31T09:22:21.666Z,22.80
2023-03-31T09:27:28.972Z,22.90
2023-03-31T09:32:36.448Z,22.90
2023-03-31T09:37:43.616Z,22.90
2023-03-31T09:42:50.889Z,23.00
2023-03-31T09:47:58.255Z,23.00
2023-03-31T09:53:05.374Z,23.10
2023-03-31T09:58:12.679Z,23.10
2023-03-31T10:03:19.897Z,23.10
2023-03-31T10:08:27.157Z,23.10
2023-03-31T10:13:34.415Z,23.00
2023-03-31T10:18:41.635Z,23.10
2023-03-31T10:23:48.784Z,23.10
2023-03-31T10:28:56.057Z,23.10
2023-03-31T10:34:03.362Z,23.20
2023-03-31T10:39:10.539Z,23.20
2023-03-31T10:44:17.706Z,23.20
2023-03-31T10:49:24.924Z,23.20
2023-03-31T10:54:32.167Z,23.20
2023-03-31T10:59:39.384Z,23.30
2023-03-31T11:04:46.704Z,23.30
2023-03-31T11:09:53.862Z,23.30
2023-03-31T11:15:01.134Z,23.40
2023-03-31T11:20:08.449Z,23.40
2023-03-31T11:25:15.627Z,23.40
2023-03-31T11:30:22.781Z,23.40
2023-03-31T11:35:30.071Z,23.40
2023-03-31T11:40:37.255Z,23.40
2023-03-31T11:45:44.631Z,23.50
2023-03-31T11:50:51.839Z,23.50
2023-03-31T11:55:59.011Z,23.50
2023-03-31T12:01:06.289Z,23.60
2023-03-31T12:06:13.526Z,23.60
2023-03-31T12:11:20.726Z,23.60
2023-03-31T12:16:28.016Z,23.60
2023-03-31T12:21:35.261Z,23.60
2023-03-31T12:26:42.548Z,23.60
2023-03-31T12:31:49.890Z,23.60
2023-03-31T12:36:57.031Z,23.60
2023-03-31T12:42:04.389Z,23.70
2023-03-31T12:47:11.658Z,23.70
2023-03-31T12:52:18.954Z,23.70
2023-03-31T12:57:26.240Z,23.70
2023-03-31T13:02:33.543Z,23.70
2023-03-31T13:07:40.801Z,23.80
2023-03-31T13:12:48.025Z,23.80
2023-03-31T13:17:55.285Z,23.80
2023-03-31T13:23:02.452Z,23.80
2023-03-31T13:28:09.621Z,23.80
2023-03-31T13:33:18.321Z,23.80
2023-03-31T13:38:24.171Z,23.90
2023-03-31T13:43:31.409Z,23.90
2023-03-31T13:48:38.686Z,23.90
2023-03-31T13:53:45.916Z,23.90
2023-03-31T13:58:53.146Z,23.90
2023-03-31T14:04:00.426Z,23.90
2023-03-31T14:09:07.669Z,23.90
2023-03-31T14:14:14.873Z,24.00
2023-03-31T14:24:29.289Z,24.00
2023-03-31T14:29:36.480Z,23.90
2023-03-31T14:34:43.777Z,23.90
2023-03-31T14:39:50.943Z,23.90
2023-03-31T14:44:58.122Z,23.90
2023-03-31T14:50:07.473Z,23.90
2023-03-31T14:55:12.498Z,23.80
2023-03-31T15:00:19.665Z,23.80
2023-03-31T15:05:26.886Z,23.80
2023-03-31T15:10:34.014Z,23.80
2023-03-31T15:15:41.250Z,23.80
2023-03-31T15:20:48.412Z,23.90
2023-03-31T15:25:55.611Z,23.90
2023-03-31T15:31:10.101Z,23.90
2023-03-31T15:36:09.985Z,24.00
2023-03-31T15:41:17.171Z,24.00
2023-03-31T15:46:24.352Z,24.00
2023-03-31T15:51:31.523Z,24.00
2023-03-31T15:56:38.825Z,24.10
2023-03-31T16:01:46.113Z,24.10
2023-03-31T16:06:53.293Z,24.10
2023-03-31T16:12:00.584Z,24.10
2023-03-31T16:17:07.907Z,24.10
2023-03-31T16:22:15.297Z,24.10
2023-03-31T16:27:22.597Z,24.10
2023-03-31T16:32:29.820Z,24.10
2023-03-31T16:37:37.055Z,24.10
2023-03-31T16:42:44.300Z,24.20
2023-03-31T16:47:53.113Z,24.10
2023-03-31T16:52:58.632Z,24.10
2023-03-31T16:58:05.862Z,24.10
2023-03-31T17:03:14.313Z,24.00
2023-03-31T17:08:21.615Z,24.10
2023-03-31T17:13:28.841Z,24.10
2023-03-31T17:18:36.253Z,24.10
2023-03-31T17:23:43.452Z,24.10
2023-03-31T17:28:50.793Z,24.10
2023-03-31T17:33:58.307Z,24.10
2023-03-31T17:39:05.727Z,24.20
2023-03-31T17:44:13.216Z,24.20
2023-03-31T17:49:21.147Z,24.20
2023-03-31T17:54:28.667Z,24.20
2023-03-31T17:59:37.609Z,24.20
2023-03-31T18:04:43.598Z,24.30
2023-03-31T18:09:51.080Z,24.30
2023-03-31T18:14:58.633Z,24.30
2023-03-31T18:20:06.011Z,24.30
2023-03-31T18:25:13.451Z,24.30
2023-03-31T18:30:20.971Z,24.40
2023-03-31T18:35:28.324Z,24.40
2023-03-31T18:40:35.857Z,24.40
2023-03-31T18:45:43.598Z,24.40
2023-03-31T18:50:51.135Z,24.40
2023-03-31T18:55:58.817Z,24.50
2023-03-31T19:01:06.523Z,24.50
2023-03-31T19:06:14.047Z,24.50
2023-03-31T19:11:21.664Z,24.50
2023-03-31T19:16:29.417Z,24.50
2023-03-31T19:21:37.092Z,24.60
2023-03-31T19:26:44.810Z,24.60
2023-03-31T19:31:52.607Z,24.60
2023-03-31T19:37:00.447Z,24.60
2023-03-31T19:42:08.263Z,24.60
2023-03-31T19:47:16.016Z,24.70
2023-03-31T19:52:23.394Z,24.70
2023-03-31T19:57:30.854Z,24.70
2023-03-31T20:02:38.614Z,24.70
2023-03-31T20:07:46.052Z,24.70
2023-03-31T20:12:53.825Z,24.70
2023-03-31T20:18:01.503Z,24.70
2023-03-31T20:23:09.177Z,24.80
2023-03-31T20:28:16.788Z,24.80
2023-03-31T20:33:24.586Z,24.80
2023-03-31T20:38:31.948Z,24.80
2023-03-31T20:43:39.203Z,24.80
2023-03-31T20:48:46.560Z,24.90
2023-03-31T20:53:53.787Z,24.90
2023-03-31T20:59:01.103Z,24.90
2023-03-31T21:04:08.512Z,24.90
2023-03-31T21:09:15.629Z,24.90
2023-03-31T21:14:22.832Z,25.00
2023-03-31T21:19:30.154Z,25.00
2023-03-31T21:24:37.414Z,25.00
2023-03-31T21:29:44.714Z,25.00
2023-03-31T21:34:52.014Z,25.10
2023-03-31T21:39:59.284Z,25.10
2023-03-31T21:45:06.578Z,25.10
2023-03-31T21:50:13.871Z,25.00
2023-03-31T21:55:21.139Z,25.10
2023-03-31T22:00:28.390Z,25.10
2023-03-31T22:05:35.674Z,25.10
2023-03-31T22:10:42.906Z,25.10
2023-03-31T22:15:50.188Z,25.10
2023-03-31T22:21:39.155Z,25.10
2023-03-31T22:27:35.140Z,25.10
2023-03-31T22:32:53.912Z,25.10
2023-03-31T22:38:36.198Z,25.10
2023-03-31T22:48:57.020Z,25.10
2023-03-31T22:54:18.927Z,25.10
2023-03-31T23:00:33.736Z,25.00
2023-03-31T23:07:11.096Z,25.00
2023-03-31T23:12:09.856Z,25.00
2023-03-31T23:17:24.662Z,25.00
2023-03-31T23:23:10.389Z,24.90
2023-03-31T23:28:53.137Z,24.80
2023-03-31T23:34:14.667Z,24.80
2023-03-31T23:40:01.889Z,24.70
2023-03-31T23:45:49.349Z,24.70
2023-03-31T23:52:21.651Z,24.70
2023-03-31T23:57:06.047Z,24.50
